sensor_id;sensor_type;location;lat;lon;timestamp;temperature;humidity
10447;DHT22;5271;44.422;26.092;2023-04-05T00:02:00;8.20;75.30
10447;DHT22;5271;44.422;26.092;2023-04-05T00:04:27;8.20;75.90
10447;DHT22;5271;44.422;26.092;2023-04-05T00:06:55;8.10;75.40
10447;DHT22;5271;44.422;26.092;2023-04-05T00:09:22;8.10;75.70
10447;DHT22;5271;44.422;26.092;2023-04-05T00:11:48;8.00;75.80
10447;DHT22;5271;44.422;26.092;2023-04-05T00:14:17;8.00;76.00
10447;DHT22;5271;44.422;26.092;2023-04-05T00:16:44;8.00;76.10
10447;DHT22;5271;44.422;26.092;2023-04-05T00:19:11;8.00;76.10
10447;DHT22;5271;44.422;26.092;2023-04-05T00:21:38;7.90;76.20
10447;DHT22;5271;44.422;26.092;2023-04-05T00:24:06;7.90;76.30
10447;DHT22;5271;44.422;26.092;2023-04-05T00:26:40;7.80;76.50
10447;DHT22;5271;44.422;26.092;2023-04-05T00:29:08;7.80;76.60
10447;DHT22;5271;44.422;26.092;2023-04-05T00:31:36;7.80;76.60
10447;DHT22;5271;44.422;26.092;2023-04-05T00:34:03;7.90;76.60
10447;DHT22;5271;44.422;26.092;2023-04-05T00:36:33;7.90;76.60
10447;DHT22;5271;44.422;26.092;2023-04-05T00:39:00;7.80;76.60
10447;DHT22;5271;44.422;26.092;2023-04-05T00:41:27;7.80;76.70
10447;DHT22;5271;44.422;26.092;2023-04-05T00:43:54;7.80;76.60
10447;DHT22;5271;44.422;26.092;2023-04-05T00:46:21;7.80;76.60
10447;DHT22;5271;44.422;26.092;2023-04-05T00:48:49;7.80;76.70
10447;DHT22;5271;44.422;26.092;2023-04-05T00:51:17;7.80;76.70
10447;DHT22;5271;44.422;26.092;2023-04-05T00:53:44;7.80;76.70
10447;DHT22;5271;44.422;26.092;2023-04-05T00:56:13;7.90;76.80
10447;DHT22;5271;44.422;26.092;2023-04-05T00:58:41;7.80;76.70
10447;DHT22;5271;44.422;26.092;2023-04-05T01:01:12;7.80;76.80
10447;DHT22;5271;44.422;26.092;2023-04-05T01:03:44;7.90;76.60
10447;DHT22;5271;44.422;26.092;2023-04-05T01:06:26;7.80;76.60
10447;DHT22;5271;44.422;26.092;2023-04-05T01:08:59;7.80;76.70
10447;DHT22;5271;44.422;26.092;2023-04-05T01:11:28;7.80;76.70
10447;DHT22;5271;44.422;26.092;2023-04-05T01:13:57;7.70;76.70
10447;DHT22;5271;44.422;26.092;2023-04-05T01:16:25;7.80;76.70
10447;DHT22;5271;44.422;26.092;2023-04-05T01:18:52;7.80;76.60
10447;DHT22;5271;44.422;26.092;2023-04-05T01:21:45;7.80;76.60
10447;DHT22;5271;44.422;26.092;2023-04-05T01:24:28;7.80;76.60
10447;DHT22;5271;44.422;26.092;2023-04-05T01:27:04;7.80;76.50
10447;DHT22;5271;44.422;26.092;2023-04-05T01:29:46;7.90;76.40
10447;DHT22;5271;44.422;26.092;2023-04-05T01:32:23;7.90;76.50
10447;DHT22;5271;44.422;26.092;2023-04-05T01:35:00;7.90;76.40
10447;DHT22;5271;44.422;26.092;2023-04-05T01:37:31;7.80;76.50
10447;DHT22;5271;44.422;26.092;2023-04-05T01:40:00;7.80;76.60
10447;DHT22;5271;44.422;26.092;2023-04-05T01:42:27;7.80;76.70
10447;DHT22;5271;44.422;26.092;2023-04-05T01:44:56;7.90;77.30
10447;DHT22;5271;44.422;26.092;2023-04-05T01:47:23;7.90;76.30
10447;DHT22;5271;44.422;26.092;2023-04-05T01:49:50;7.90;76.40
10447;DHT22;5271;44.422;26.092;2023-04-05T01:52:17;7.90;76.30
10447;DHT22;5271;44.422;26.092;2023-04-05T01:54:43;7.90;76.40
10447;DHT22;5271;44.422;26.092;2023-04-05T01:57:10;8.00;76.20
10447;DHT22;5271;44.422;26.092;2023-04-05T01:59:37;8.00;75.70
10447;DHT22;5271;44.422;26.092;2023-04-05T02:02:05;7.90;75.60
10447;DHT22;5271;44.422;26.092;2023-04-05T02:04:32;7.90;75.80
10447;DHT22;5271;44.422;26.092;2023-04-05T02:06:59;7.80;75.80
10447;DHT22;5271;44.422;26.092;2023-04-05T02:09:27;7.80;75.90
10447;DHT22;5271;44.422;26.092;2023-04-05T02:11:54;7.90;75.70
10447;DHT22;5271;44.422;26.092;2023-04-05T02:14:22;7.90;75.90
10447;DHT22;5271;44.422;26.092;2023-04-05T02:16:49;7.80;75.70
10447;DHT22;5271;44.422;26.092;2023-04-05T02:19:20;7.80;75.90
10447;DHT22;5271;44.422;26.092;2023-04-05T02:21:48;7.80;75.70
10447;DHT22;5271;44.422;26.092;2023-04-05T02:24:15;7.80;75.60
10447;DHT22;5271;44.422;26.092;2023-04-05T02:26:41;7.80;75.60
10447;DHT22;5271;44.422;26.092;2023-04-05T02:29:08;7.80;75.80
10447;DHT22;5271;44.422;26.092;2023-04-05T02:31:35;7.80;75.80
10447;DHT22;5271;44.422;26.092;2023-04-05T02:34:02;7.80;75.70
10447;DHT22;5271;44.422;26.092;2023-04-05T02:36:31;7.80;76.00
10447;DHT22;5271;44.422;26.092;2023-04-05T02:38:58;7.90;76.10
10447;DHT22;5271;44.422;26.092;2023-04-05T02:41:26;7.90;75.60
10447;DHT22;5271;44.422;26.092;2023-04-05T02:43:52;8.00;75.90
10447;DHT22;5271;44.422;26.092;2023-04-05T02:46:19;8.00;75.50
10447;DHT22;5271;44.422;26.092;2023-04-05T02:48:46;8.00;75.10
10447;DHT22;5271;44.422;26.092;2023-04-05T02:51:13;8.00;75.40
10447;DHT22;5271;44.422;26.092;2023-04-05T02:53:41;8.00;75.80
10447;DHT22;5271;44.422;26.092;2023-04-05T02:56:09;8.00;75.70
10447;DHT22;5271;44.422;26.092;2023-04-05T02:58:38;8.00;75.60
10447;DHT22;5271;44.422;26.092;2023-04-05T03:01:05;8.00;75.70
10447;DHT22;5271;44.422;26.092;2023-04-05T03:03:33;8.00;75.50
10447;DHT22;5271;44.422;26.092;2023-04-05T03:06:04;8.00;75.70
10447;DHT22;5271;44.422;26.092;2023-04-05T03:08:34;8.00;75.40
10447;DHT22;5271;44.422;26.092;2023-04-05T03:11:04;8.00;75.50
10447;DHT22;5271;44.422;26.092;2023-04-05T03:13:32;8.00;75.60
10447;DHT22;5271;44.422;26.092;2023-04-05T03:15:59;8.00;75.60
10447;DHT22;5271;44.422;26.092;2023-04-05T03:18:26;8.00;75.60
10447;DHT22;5271;44.422;26.092;2023-04-05T03:20:54;8.00;75.60
10447;DHT22;5271;44.422;26.092;2023-04-05T03:23:22;8.00;75.70
10447;DHT22;5271;44.422;26.092;2023-04-05T03:25:57;8.00;75.60
10447;DHT22;5271;44.422;26.092;2023-04-05T03:28:25;8.00;75.60
10447;DHT22;5271;44.422;26.092;2023-04-05T03:30:52;8.00;75.50
10447;DHT22;5271;44.422;26.092;2023-04-05T03:33:19;8.00;75.50
10447;DHT22;5271;44.422;26.092;2023-04-05T03:35:46;7.90;75.20
10447;DHT22;5271;44.422;26.092;2023-04-05T03:38:14;7.90;75.60
10447;DHT22;5271;44.422;26.092;2023-04-05T03:40:41;7.90;75.60
10447;DHT22;5271;44.422;26.092;2023-04-05T03:43:08;7.90;75.70
10447;DHT22;5271;44.422;26.092;2023-04-05T03:45:36;7.90;75.70
10447;DHT22;5271;44.422;26.092;2023-04-05T03:48:04;7.90;75.80
10447;DHT22;5271;44.422;26.092;2023-04-05T03:50:30;7.90;75.60
10447;DHT22;5271;44.422;26.092;2023-04-05T03:52:57;7.90;75.80
10447;DHT22;5271;44.422;26.092;2023-04-05T03:55:24;7.90;75.80
10447;DHT22;5271;44.422;26.092;2023-04-05T03:57:52;7.80;75.60
10447;DHT22;5271;44.422;26.092;2023-04-05T04:00:19;7.80;75.50
10447;DHT22;5271;44.422;26.092;2023-04-05T04:02:49;7.70;75.60
10447;DHT22;5271;44.422;26.092;2023-04-05T04:05:18;7.60;75.60
10447;DHT22;5271;44.422;26.092;2023-04-05T04:07:45;7.40;75.80
10447;DHT22;5271;44.422;26.092;2023-04-05T04:10:15;7.30;76.10
10447;DHT22;5271;44.422;26.092;2023-04-05T04:12:43;7.20;76.40
10447;DHT22;5271;44.422;26.092;2023-04-05T04:15:11;7.10;76.50
10447;DHT22;5271;44.422;26.092;2023-04-05T04:17:38;7.10;76.80
10447;DHT22;5271;44.422;26.092;2023-04-05T04:20:08;7.00;76.90
10447;DHT22;5271;44.422;26.092;2023-04-05T04:22:36;6.90;77.10
10447;DHT22;5271;44.422;26.092;2023-04-05T04:25:05;6.80;77.20
10447;DHT22;5271;44.422;26.092;2023-04-05T04:27:35;6.90;77.50
10447;DHT22;5271;44.422;26.092;2023-04-05T04:30:06;6.90;77.30
10447;DHT22;5271;44.422;26.092;2023-04-05T04:32:35;7.00;77.10
10447;DHT22;5271;44.422;26.092;2023-04-05T04:35:21;7.00;77.10
10447;DHT22;5271;44.422;26.092;2023-04-05T04:38:00;7.00;77.10
10447;DHT22;5271;44.422;26.092;2023-04-05T04:40:27;6.90;77.30
10447;DHT22;5271;44.422;26.092;2023-04-05T04:42:57;6.90;77.20
10447;DHT22;5271;44.422;26.092;2023-04-05T04:45:24;6.90;77.20
10447;DHT22;5271;44.422;26.092;2023-04-05T04:47:51;6.90;77.30
10447;DHT22;5271;44.422;26.092;2023-04-05T04:50:21;6.90;77.50
10447;DHT22;5271;44.422;26.092;2023-04-05T04:52:48;6.90;77.60
10447;DHT22;5271;44.422;26.092;2023-04-05T04:55:15;6.90;77.40
10447;DHT22;5271;44.422;26.092;2023-04-05T04:57:42;7.00;77.40
10447;DHT22;5271;44.422;26.092;2023-04-05T05:00:10;7.00;77.20
10447;DHT22;5271;44.422;26.092;2023-04-05T05:02:40;7.00;77.20
10447;DHT22;5271;44.422;26.092;2023-04-05T05:05:09;7.10;77.20
10447;DHT22;5271;44.422;26.092;2023-04-05T05:07:38;7.10;77.00
10447;DHT22;5271;44.422;26.092;2023-04-05T05:10:07;7.20;76.80
10447;DHT22;5271;44.422;26.092;2023-04-05T05:12:34;7.20;76.60
10447;DHT22;5271;44.422;26.092;2023-04-05T05:15:01;7.30;76.90
10447;DHT22;5271;44.422;26.092;2023-04-05T05:17:28;7.30;76.70
10447;DHT22;5271;44.422;26.092;2023-04-05T05:19:56;7.30;76.40
10447;DHT22;5271;44.422;26.092;2023-04-05T05:22:24;7.40;76.40
10447;DHT22;5271;44.422;26.092;2023-04-05T05:24:53;7.40;76.50
10447;DHT22;5271;44.422;26.092;2023-04-05T05:27:20;7.40;76.10
10447;DHT22;5271;44.422;26.092;2023-04-05T05:29:47;7.40;76.20
10447;DHT22;5271;44.422;26.092;2023-04-05T05:32:14;7.30;76.30
10447;DHT22;5271;44.422;26.092;2023-04-05T05:34:41;7.30;76.40
10447;DHT22;5271;44.422;26.092;2023-04-05T05:37:09;7.30;76.30
10447;DHT22;5271;44.422;26.092;2023-04-05T05:39:36;7.20;76.50
10447;DHT22;5271;44.422;26.092;2023-04-05T05:42:05;7.20;76.70
10447;DHT22;5271;44.422;26.092;2023-04-05T05:44:32;7.10;76.80
10447;DHT22;5271;44.422;26.092;2023-04-05T05:47:00;7.10;77.10
10447;DHT22;5271;44.422;26.092;2023-04-05T05:49:27;7.10;76.90
10447;DHT22;5271;44.422;26.092;2023-04-05T05:51:54;7.10;77.00
10447;DHT22;5271;44.422;26.092;2023-04-05T05:54:22;7.00;77.10
10447;DHT22;5271;44.422;26.092;2023-04-05T05:56:48;7.00;77.40
10447;DHT22;5271;44.422;26.092;2023-04-05T05:59:17;7.00;77.30
10447;DHT22;5271;44.422;26.092;2023-04-05T06:01:43;7.00;77.40
10447;DHT22;5271;44.422;26.092;2023-04-05T06:04:11;7.00;77.30
10447;DHT22;5271;44.422;26.092;2023-04-05T06:06:38;7.00;77.40
10447;DHT22;5271;44.422;26.092;2023-04-05T06:09:05;7.00;77.30
10447;DHT22;5271;44.422;26.092;2023-04-05T06:11:32;7.10;77.30
10447;DHT22;5271;44.422;26.092;2023-04-05T06:13:58;7.20;77.20
10447;DHT22;5271;44.422;26.092;2023-04-05T06:16:27;7.20;77.20
10447;DHT22;5271;44.422;26.092;2023-04-05T06:18:55;7.30;77.20
10447;DHT22;5271;44.422;26.092;2023-04-05T06:21:22;7.30;76.80
10447;DHT22;5271;44.422;26.092;2023-04-05T06:23:49;7.30;76.70
10447;DHT22;5271;44.422;26.092;2023-04-05T06:26:16;7.30;76.80
10447;DHT22;5271;44.422;26.092;2023-04-05T06:28:45;7.40;76.70
10447;DHT22;5271;44.422;26.092;2023-04-05T06:31:14;7.40;76.60
10447;DHT22;5271;44.422;26.092;2023-04-05T06:33:43;7.40;76.50
10447;DHT22;5271;44.422;26.092;2023-04-05T06:36:10;7.50;76.70
10447;DHT22;5271;44.422;26.092;2023-04-05T06:38:37;7.50;76.30
10447;DHT22;5271;44.422;26.092;2023-04-05T06:41:04;7.60;76.30
10447;DHT22;5271;44.422;26.092;2023-04-05T06:43:31;7.50;76.40
10447;DHT22;5271;44.422;26.092;2023-04-05T06:45:58;7.60;76.20
10447;DHT22;5271;44.422;26.092;2023-04-05T06:48:25;7.60;75.50
10447;DHT22;5271;44.422;26.092;2023-04-05T06:50:58;7.50;75.70
10447;DHT22;5271;44.422;26.092;2023-04-05T06:53:26;7.50;75.80
10447;DHT22;5271;44.422;26.092;2023-04-05T06:55:53;7.40;75.80
10447;DHT22;5271;44.422;26.092;2023-04-05T06:58:20;7.30;75.90
10447;DHT22;5271;44.422;26.092;2023-04-05T07:00:48;7.30;76.10
10447;DHT22;5271;44.422;26.092;2023-04-05T07:03:14;7.20;76.10
10447;DHT22;5271;44.422;26.092;2023-04-05T07:05:49;7.20;76.20
10447;DHT22;5271;44.422;26.092;2023-04-05T07:08:17;7.30;76.10
10447;DHT22;5271;44.422;26.092;2023-04-05T07:10:45;7.30;76.40
10447;DHT22;5271;44.422;26.092;2023-04-05T07:13:12;7.30;76.10
10447;DHT22;5271;44.422;26.092;2023-04-05T07:15:39;7.30;76.20
10447;DHT22;5271;44.422;26.092;2023-04-05T07:18:05;7.20;77.00
10447;DHT22;5271;44.422;26.092;2023-04-05T07:20:32;7.30;76.60
10447;DHT22;5271;44.422;26.092;2023-04-05T07:22:59;7.30;76.60
10447;DHT22;5271;44.422;26.092;2023-04-05T07:25:27;7.40;76.70
10447;DHT22;5271;44.422;26.092;2023-04-05T07:27:54;7.50;76.60
10447;DHT22;5271;44.422;26.092;2023-04-05T07:30:21;7.60;76.10
10447;DHT22;5271;44.422;26.092;2023-04-05T07:32:48;7.70;76.10
10447;DHT22;5271;44.422;26.092;2023-04-05T07:35:15;7.70;75.40
10447;DHT22;5271;44.422;26.092;2023-04-05T07:37:42;7.70;75.30
10447;DHT22;5271;44.422;26.092;2023-04-05T07:40:10;7.80;75.20
10447;DHT22;5271;44.422;26.092;2023-04-05T07:42:38;7.90;74.90
10447;DHT22;5271;44.422;26.092;2023-04-05T07:45:06;7.90;74.70
10447;DHT22;5271;44.422;26.092;2023-04-05T07:47:33;8.00;74.80
10447;DHT22;5271;44.422;26.092;2023-04-05T07:50:00;8.10;74.90
10447;DHT22;5271;44.422;26.092;2023-04-05T07:52:27;8.20;74.60
10447;DHT22;5271;44.422;26.092;2023-04-05T07:54:54;8.30;74.50
10447;DHT22;5271;44.422;26.092;2023-04-05T07:57:21;8.40;74.40
10447;DHT22;5271;44.422;26.092;2023-04-05T07:59:50;8.60;74.30
10447;DHT22;5271;44.422;26.092;2023-04-05T08:02:17;8.70;74.00
10447;DHT22;5271;44.422;26.092;2023-04-05T08:04:44;8.90;74.30
10447;DHT22;5271;44.422;26.092;2023-04-05T08:07:11;9.20;73.00
10447;DHT22;5271;44.422;26.092;2023-04-05T08:09:38;9.80;71.00
10447;DHT22;5271;44.422;26.092;2023-04-05T08:12:05;10.40;70.00
10447;DHT22;5271;44.422;26.092;2023-04-05T08:14:32;11.10;68.60
10447;DHT22;5271;44.422;26.092;2023-04-05T08:17:00;11.80;66.50
10447;DHT22;5271;44.422;26.092;2023-04-05T08:19:27;12.70;66.10
10447;DHT22;5271;44.422;26.092;2023-04-05T08:21:54;13.50;64.80
10447;DHT22;5271;44.422;26.092;2023-04-05T08:24:21;14.20;64.00
10447;DHT22;5271;44.422;26.092;2023-04-05T08:26:47;15.10;61.10
10447;DHT22;5271;44.422;26.092;2023-04-05T08:29:14;15.70;59.00
10447;DHT22;5271;44.422;26.092;2023-04-05T08:31:41;16.20;58.40
10447;DHT22;5271;44.422;26.092;2023-04-05T08:34:09;16.20;58.10
10447;DHT22;5271;44.422;26.092;2023-04-05T08:36:36;15.40;58.40
10447;DHT22;5271;44.422;26.092;2023-04-05T08:39:03;14.50;60.00
10447;DHT22;5271;44.422;26.092;2023-04-05T08:41:35;13.80;61.50
10447;DHT22;5271;44.422;26.092;2023-04-05T08:44:04;13.20;62.70
10447;DHT22;5271;44.422;26.092;2023-04-05T08:46:32;12.80;63.60
10447;DHT22;5271;44.422;26.092;2023-04-05T08:49:03;12.50;63.90
10447;DHT22;5271;44.422;26.092;2023-04-05T08:51:32;12.30;64.70
10447;DHT22;5271;44.422;26.092;2023-04-05T08:53:59;12.20;65.30
10447;DHT22;5271;44.422;26.092;2023-04-05T08:56:29;12.10;64.50
10447;DHT22;5271;44.422;26.092;2023-04-05T08:59:01;11.90;64.50
10447;DHT22;5271;44.422;26.092;2023-04-05T09:01:29;11.70;65.10
10447;DHT22;5271;44.422;26.092;2023-04-05T09:03:57;11.70;65.70
10447;DHT22;5271;44.422;26.092;2023-04-05T09:06:24;11.60;65.40
10447;DHT22;5271;44.422;26.092;2023-04-05T09:08:56;11.60;65.90
10447;DHT22;5271;44.422;26.092;2023-04-05T09:11:23;11.60;65.40
10447;DHT22;5271;44.422;26.092;2023-04-05T09:13:50;11.60;65.70
10447;DHT22;5271;44.422;26.092;2023-04-05T09:16:17;11.70;66.00
10447;DHT22;5271;44.422;26.092;2023-04-05T09:18:45;11.80;65.50
10447;DHT22;5271;44.422;26.092;2023-04-05T09:21:11;11.90;65.40
10447;DHT22;5271;44.422;26.092;2023-04-05T09:23:50;12.10;65.60
10447;DHT22;5271;44.422;26.092;2023-04-05T09:26:20;12.10;65.00
10447;DHT22;5271;44.422;26.092;2023-04-05T09:28:48;12.10;64.90
10447;DHT22;5271;44.422;26.092;2023-04-05T09:31:28;12.10;65.10
10447;DHT22;5271;44.422;26.092;2023-04-05T09:33:57;12.20;64.80
10447;DHT22;5271;44.422;26.092;2023-04-05T09:36:25;12.30;64.30
10447;DHT22;5271;44.422;26.092;2023-04-05T09:38:53;12.40;64.80
10447;DHT22;5271;44.422;26.092;2023-04-05T09:41:31;12.40;63.90
10447;DHT22;5271;44.422;26.092;2023-04-05T09:43:57;12.40;63.60
10447;DHT22;5271;44.422;26.092;2023-04-05T09:46:29;12.50;63.80
10447;DHT22;5271;44.422;26.092;2023-04-05T09:48:57;12.50;63.30
10447;DHT22;5271;44.422;26.092;2023-04-05T09:51:31;12.50;64.00
10447;DHT22;5271;44.422;26.092;2023-04-05T09:54:00;12.60;63.60
10447;DHT22;5271;44.422;26.092;2023-04-05T09:56:28;12.80;63.00
10447;DHT22;5271;44.422;26.092;2023-04-05T09:59:01;12.80;63.00
10447;DHT22;5271;44.422;26.092;2023-04-05T10:01:30;12.80;62.80
10447;DHT22;5271;44.422;26.092;2023-04-05T10:03:58;12.70;63.10
10447;DHT22;5271;44.422;26.092;2023-04-05T10:06:34;12.80;63.00
10447;DHT22;5271;44.422;26.092;2023-04-05T10:09:02;12.80;62.90
10447;DHT22;5271;44.422;26.092;2023-04-05T10:11:30;12.90;63.10
10447;DHT22;5271;44.422;26.092;2023-04-05T10:14:01;13.10;62.90
10447;DHT22;5271;44.422;26.092;2023-04-05T10:16:31;13.20;63.20
10447;DHT22;5271;44.422;26.092;2023-04-05T10:18:58;13.20;62.20
10447;DHT22;5271;44.422;26.092;2023-04-05T10:21:28;13.20;61.20
10447;DHT22;5271;44.422;26.092;2023-04-05T10:24:00;13.30;60.90
10447;DHT22;5271;44.422;26.092;2023-04-05T10:26:37;13.40;59.90
10447;DHT22;5271;44.422;26.092;2023-04-05T10:29:12;13.50;60.20
10447;DHT22;5271;44.422;26.092;2023-04-05T10:31:49;13.50;58.70
10447;DHT22;5271;44.422;26.092;2023-04-05T10:34:23;13.50;58.50
10447;DHT22;5271;44.422;26.092;2023-04-05T10:36:56;13.60;57.90
10447;DHT22;5271;44.422;26.092;2023-04-05T10:39:26;13.60;57.80
10447;DHT22;5271;44.422;26.092;2023-04-05T10:41:58;13.60;58.20
10447;DHT22;5271;44.422;26.092;2023-04-05T10:44:29;13.60;57.80
10447;DHT22;5271;44.422;26.092;2023-04-05T10:46:57;13.60;56.80
10447;DHT22;5271;44.422;26.092;2023-04-05T10:49:31;13.60;57.10
10447;DHT22;5271;44.422;26.092;2023-04-05T10:52:00;13.60;57.50
10447;DHT22;5271;44.422;26.092;2023-04-05T10:54:30;13.60;57.70
10447;DHT22;5271;44.422;26.092;2023-04-05T10:56:58;13.70;57.20
10447;DHT22;5271;44.422;26.092;2023-04-05T10:59:28;13.60;56.70
10447;DHT22;5271;44.422;26.092;2023-04-05T11:01:56;13.60;56.40
10447;DHT22;5271;44.422;26.092;2023-04-05T11:04:23;13.70;56.80
10447;DHT22;5271;44.422;26.092;2023-04-05T11:07:11;13.70;56.90
10447;DHT22;5271;44.422;26.092;2023-04-05T11:09:39;13.80;56.80
10447;DHT22;5271;44.422;26.092;2023-04-05T11:12:16;13.90;57.60
10447;DHT22;5271;44.422;26.092;2023-04-05T11:14:44;14.00;56.70
10447;DHT22;5271;44.422;26.092;2023-04-05T11:17:23;14.00;56.90
10447;DHT22;5271;44.422;26.092;2023-04-05T11:19:51;14.00;55.60
10447;DHT22;5271;44.422;26.092;2023-04-05T11:22:26;14.00;55.50
10447;DHT22;5271;44.422;26.092;2023-04-05T11:24:54;13.90;55.60
10447;DHT22;5271;44.422;26.092;2023-04-05T11:27:26;14.00;56.20
10447;DHT22;5271;44.422;26.092;2023-04-05T11:29:55;14.00;55.90
10447;DHT22;5271;44.422;26.092;2023-04-05T11:32:23;14.00;55.90
10447;DHT22;5271;44.422;26.092;2023-04-05T11:35:01;14.00;57.00
10447;DHT22;5271;44.422;26.092;2023-04-05T11:37:52;14.00;56.80
10447;DHT22;5271;44.422;26.092;2023-04-05T11:40:27;14.00;56.60
10447;DHT22;5271;44.422;26.092;2023-04-05T11:43:00;14.10;56.90
10447;DHT22;5271;44.422;26.092;2023-04-05T11:45:29;14.10;55.80
10447;DHT22;5271;44.422;26.092;2023-04-05T11:47:56;14.00;56.10
10447;DHT22;5271;44.422;26.092;2023-04-05T11:50:24;14.00;56.50
10447;DHT22;5271;44.422;26.092;2023-04-05T11:53:11;14.00;56.40
10447;DHT22;5271;44.422;26.092;2023-04-05T11:55:39;14.00;56.00
10447;DHT22;5271;44.422;26.092;2023-04-05T11:58:13;14.00;56.40
10447;DHT22;5271;44.422;26.092;2023-04-05T12:00:43;14.00;55.90
10447;DHT22;5271;44.422;26.092;2023-04-05T12:03:11;13.90;55.70
10447;DHT22;5271;44.422;26.092;2023-04-05T12:05:51;13.90;55.20
10447;DHT22;5271;44.422;26.092;2023-04-05T12:08:19;13.90;55.70
10447;DHT22;5271;44.422;26.092;2023-04-05T12:10:53;13.80;56.00
10447;DHT22;5271;44.422;26.092;2023-04-05T12:13:31;13.70;56.50
10447;DHT22;5271;44.422;26.092;2023-04-05T12:16:02;13.70;56.90
10447;DHT22;5271;44.422;26.092;2023-04-05T12:18:30;13.70;56.60
10447;DHT22;5271;44.422;26.092;2023-04-05T12:20:58;13.70;56.30
10447;DHT22;5271;44.422;26.092;2023-04-05T12:23:25;13.60;56.50
10447;DHT22;5271;44.422;26.092;2023-04-05T12:25:54;13.60;57.00
10447;DHT22;5271;44.422;26.092;2023-04-05T12:28:21;13.50;57.20
10447;DHT22;5271;44.422;26.092;2023-04-05T12:30:49;13.50;57.40
10447;DHT22;5271;44.422;26.092;2023-04-05T12:33:25;13.50;57.50
10447;DHT22;5271;44.422;26.092;2023-04-05T12:35:53;13.50;57.40
10447;DHT22;5271;44.422;26.092;2023-04-05T12:38:20;13.60;57.30
10447;DHT22;5271;44.422;26.092;2023-04-05T12:40:47;13.50;58.10
10447;DHT22;5271;44.422;26.092;2023-04-05T12:43:13;13.50;57.40
10447;DHT22;5271;44.422;26.092;2023-04-05T12:45:44;13.50;58.00
10447;DHT22;5271;44.422;26.092;2023-04-05T12:48:12;13.40;58.00
10447;DHT22;5271;44.422;26.092;2023-04-05T12:50:43;13.40;58.10
10447;DHT22;5271;44.422;26.092;2023-04-05T12:53:15;13.40;58.10
10447;DHT22;5271;44.422;26.092;2023-04-05T12:55:47;13.50;58.00
10447;DHT22;5271;44.422;26.092;2023-04-05T12:58:15;13.50;58.50
10447;DHT22;5271;44.422;26.092;2023-04-05T13:00:43;13.50;58.30
10447;DHT22;5271;44.422;26.092;2023-04-05T13:03:15;13.50;58.40
10447;DHT22;5271;44.422;26.092;2023-04-05T13:05:43;13.60;58.50
10447;DHT22;5271;44.422;26.092;2023-04-05T13:08:10;13.50;57.90
10447;DHT22;5271;44.422;26.092;2023-04-05T13:10:37;13.50;57.60
10447;DHT22;5271;44.422;26.092;2023-04-05T13:13:04;13.60;56.90
10447;DHT22;5271;44.422;26.092;2023-04-05T13:15:31;13.60;57.50
10447;DHT22;5271;44.422;26.092;2023-04-05T13:17:58;13.60;57.70
10447;DHT22;5271;44.422;26.092;2023-04-05T13:20:25;13.70;57.70
10447;DHT22;5271;44.422;26.092;2023-04-05T13:22:53;13.70;57.80
10447;DHT22;5271;44.422;26.092;2023-04-05T13:25:21;13.70;57.60
10447;DHT22;5271;44.422;26.092;2023-04-05T13:27:48;13.70;56.80
10447;DHT22;5271;44.422;26.092;2023-04-05T13:30:15;13.70;56.20
10447;DHT22;5271;44.422;26.092;2023-04-05T13:32:42;13.70;56.30
10447;DHT22;5271;44.422;26.092;2023-04-05T13:35:09;13.70;56.90
10447;DHT22;5271;44.422;26.092;2023-04-05T13:37:36;13.70;57.20
10447;DHT22;5271;44.422;26.092;2023-04-05T13:40:06;13.70;56.00
10447;DHT22;5271;44.422;26.092;2023-04-05T13:42:33;13.70;56.50
10447;DHT22;5271;44.422;26.092;2023-04-05T13:45:00;13.70;57.30
10447;DHT22;5271;44.422;26.092;2023-04-05T13:47:27;13.70;57.10
10447;DHT22;5271;44.422;26.092;2023-04-05T13:49:53;13.70;56.30
10447;DHT22;5271;44.422;26.092;2023-04-05T13:52:20;13.80;55.80
10447;DHT22;5271;44.422;26.092;2023-04-05T13:54:47;13.80;56.00
10447;DHT22;5271;44.422;26.092;2023-04-05T13:57:15;13.90;56.30
10447;DHT22;5271;44.422;26.092;2023-04-05T13:59:42;13.90;55.70
10447;DHT22;5271;44.422;26.092;2023-04-05T14:02:09;13.90;55.70
10447;DHT22;5271;44.422;26.092;2023-04-05T14:04:37;13.90;55.40
10447;DHT22;5271;44.422;26.092;2023-04-05T14:07:04;13.90;54.90
10447;DHT22;5271;44.422;26.092;2023-04-05T14:09:32;13.90;56.10
10447;DHT22;5271;44.422;26.092;2023-04-05T14:12:00;13.90;55.40
10447;DHT22;5271;44.422;26.092;2023-04-05T14:14:30;13.90;54.10
10447;DHT22;5271;44.422;26.092;2023-04-05T14:16:56;13.90;54.50
10447;DHT22;5271;44.422;26.092;2023-04-05T14:19:23;13.90;55.00
10447;DHT22;5271;44.422;26.092;2023-04-05T14:21:50;14.00;55.40
10447;DHT22;5271;44.422;26.092;2023-04-05T14:24:17;14.00;55.50
10447;DHT22;5271;44.422;26.092;2023-04-05T14:26:44;14.10;55.60
10447;DHT22;5271;44.422;26.092;2023-04-05T14:29:14;14.00;55.40
10447;DHT22;5271;44.422;26.092;2023-04-05T14:31:42;14.10;55.60
10447;DHT22;5271;44.422;26.092;2023-04-05T14:34:09;14.10;55.50
10447;DHT22;5271;44.422;26.092;2023-04-05T14:36:36;14.00;55.90
10447;DHT22;5271;44.422;26.092;2023-04-05T14:39:03;14.00;56.10
10447;DHT22;5271;44.422;26.092;2023-04-05T14:41:30;14.00;56.30
10447;DHT22;5271;44.422;26.092;2023-04-05T14:43:57;14.10;55.80
10447;DHT22;5271;44.422;26.092;2023-04-05T14:46:24;14.10;56.10
10447;DHT22;5271;44.422;26.092;2023-04-05T14:48:52;14.10;56.10
10447;DHT22;5271;44.422;26.092;2023-04-05T14:51:19;14.10;56.50
10447;DHT22;5271;44.422;26.092;2023-04-05T14:53:46;14.10;55.90
10447;DHT22;5271;44.422;26.092;2023-04-05T14:56:13;14.10;56.00
10447;DHT22;5271;44.422;26.092;2023-04-05T14:58:40;14.00;56.50
10447;DHT22;5271;44.422;26.092;2023-04-05T15:01:07;14.10;56.60
10447;DHT22;5271;44.422;26.092;2023-04-05T15:03:34;14.10;56.70
10447;DHT22;5271;44.422;26.092;2023-04-05T15:06:03;14.10;57.40
10447;DHT22;5271;44.422;26.092;2023-04-05T15:08:30;14.20;56.60
10447;DHT22;5271;44.422;26.092;2023-04-05T15:10:57;14.20;56.30
10447;DHT22;5271;44.422;26.092;2023-04-05T15:13:24;14.20;56.60
10447;DHT22;5271;44.422;26.092;2023-04-05T15:15:51;14.10;55.80
10447;DHT22;5271;44.422;26.092;2023-04-05T15:18:18;14.10;55.80
10447;DHT22;5271;44.422;26.092;2023-04-05T15:20:45;14.10;55.60
10447;DHT22;5271;44.422;26.092;2023-04-05T15:23:13;14.00;55.80
10447;DHT22;5271;44.422;26.092;2023-04-05T15:25:40;14.00;56.30
10447;DHT22;5271;44.422;26.092;2023-04-05T15:28:07;14.10;56.50
10447;DHT22;5271;44.422;26.092;2023-04-05T15:30:34;14.20;56.30
10447;DHT22;5271;44.422;26.092;2023-04-05T15:33:02;14.20;55.80
10447;DHT22;5271;44.422;26.092;2023-04-05T15:35:29;14.20;55.90
10447;DHT22;5271;44.422;26.092;2023-04-05T15:37:56;14.20;56.20
10447;DHT22;5271;44.422;26.092;2023-04-05T15:40:24;14.20;56.00
10447;DHT22;5271;44.422;26.092;2023-04-05T15:42:51;14.20;55.90
10447;DHT22;5271;44.422;26.092;2023-04-05T15:45:19;14.20;55.50
10447;DHT22;5271;44.422;26.092;2023-04-05T15:47:46;14.20;55.50